sensor_id;sensor_type;location;lat;lon;timestamp;pressure;altitude;pressure_sealevel;temperature;humidity
5877;BME280;2964;42.144;24.730;2023-04-26T00:02:24;144669.47;;;12.43;100.00
5877;BME280;2964;42.144;24.730;2023-04-26T00:04:52;144674.47;;;12.45;100.00
5877;BME280;2964;42.144;24.730;2023-04-26T00:07:22;144684.53;;;12.49;100.00
5877;BME280;2964;42.144;24.730;2023-04-26T00:09:49;144674.47;;;12.45;100.00
5877;BME280;2964;42.144;24.730;2023-04-26T00:12:16;144644.28;;;12.33;100.00
5877;BME280;2964;42.144;24.730;2023-04-26T00:14:43;144612.81;;;12.20;100.00
5877;BME280;2964;42.144;24.730;2023-04-26T00:17:10;144641.75;;;12.32;100.00
5877;BME280;2964;42.144;24.730;2023-04-26T00:19:36;144634.22;;;12.29;100.00
5877;BME280;2964;42.144;24.730;2023-04-26T00:22:04;144684.53;;;12.49;100.00
5877;BME280;2964;42.144;24.730;2023-04-26T00:24:32;144666.91;;;12.42;100.00
5877;BME280;2964;42.144;24.730;2023-04-26T00:26:59;144664.38;;;12.41;100.00
5877;BME280;2964;42.144;24.730;2023-04-26T00:29:26;144659.34;;;12.39;100.00
5877;BME280;2964;42.144;24.730;2023-04-26T00:31:52;144664.38;;;12.41;100.00
5877;BME280;2964;42.144;24.730;2023-04-26T00:34:19;144670.69;;;12.44;100.00
5877;BME280;2964;42.144;24.730;2023-04-26T00:36:46;144660.66;;;12.40;100.00
5877;BME280;2964;42.144;24.730;2023-04-26T00:39:12;144655.63;;;12.38;100.00
5877;BME280;2964;42.144;24.730;2023-04-26T00:41:40;144654.31;;;12.37;100.00
5877;BME280;2964;42.144;24.730;2023-04-26T00:44:07;144650.53;;;12.35;100.00
5877;BME280;2964;42.144;24.730;2023-04-26T00:46:34;144656.88;;;12.38;100.00
5877;BME280;2964;42.144;24.730;2023-04-26T00:49:01;144644.28;;;12.33;100.00
5877;BME280;2964;42.144;24.730;2023-04-26T00:51:28;144614.06;;;12.21;100.00
5877;BME280;2964;42.144;24.730;2023-04-26T00:53:56;144631.69;;;12.28;100.00
5877;BME280;2964;42.144;24.730;2023-04-26T00:56:23;144639.25;;;12.31;100.00
5877;BME280;2964;42.144;24.730;2023-04-26T00:58:52;144617.84;;;12.22;100.00
5877;BME280;2964;42.144;24.730;2023-04-26T01:01:18;144626.66;;;12.26;100.00
5877;BME280;2964;42.144;24.730;2023-04-26T01:03:45;144631.69;;;12.28;100.00
5877;BME280;2964;42.144;24.730;2023-04-26T01:06:13;144616.63;;;12.22;100.00
5877;BME280;2964;42.144;24.730;2023-04-26T01:08:40;144612.81;;;12.20;100.00
5877;BME280;2964;42.144;24.730;2023-04-26T01:11:07;144634.22;;;12.29;100.00
5877;BME280;2964;42.144;24.730;2023-04-26T01:13:34;144645.53;;;12.33;100.00
5877;BME280;2964;42.144;24.730;2023-04-26T01:16:03;144600.25;;;12.15;100.00
5877;BME280;2964;42.144;24.730;2023-04-26T01:18:33;144573.81;;;12.04;100.00
5877;BME280;2964;42.144;24.730;2023-04-26T01:21:00;144553.72;;;11.96;100.00
5877;BME280;2964;42.144;24.730;2023-04-26T01:23:30;144556.25;;;11.97;100.00
5877;BME280;2964;42.144;24.730;2023-04-26T01:25:57;144548.69;;;11.94;100.00
5877;BME280;2964;42.144;24.730;2023-04-26T01:28:23;144543.69;;;11.92;100.00
5877;BME280;2964;42.144;24.730;2023-04-26T01:30:50;144533.59;;;11.88;100.00
5877;BME280;2964;42.144;24.730;2023-04-26T01:33:17;144522.25;;;11.83;100.00
5877;BME280;2964;42.144;24.730;2023-04-26T01:35:43;144518.47;;;11.82;100.00
5877;BME280;2964;42.144;24.730;2023-04-26T01:38:10;144473.19;;;11.63;100.00
5877;BME280;2964;42.144;24.730;2023-04-26T01:40:40;144483.25;;;11.67;100.00
5877;BME280;2964;42.144;24.730;2023-04-26T01:43:10;144473.19;;;11.63;100.00
5877;BME280;2964;42.144;24.730;2023-04-26T01:45:37;144480.75;;;11.66;100.00
5877;BME280;2964;42.144;24.730;2023-04-26T01:48:04;144459.38;;;11.57;100.00
5877;BME280;2964;42.144;24.730;2023-04-26T01:50:31;144443.00;;;11.51;100.00
5877;BME280;2964;42.144;24.730;2023-04-26T01:52:57;144473.19;;;11.63;100.00
5877;BME280;2964;42.144;24.730;2023-04-26T01:55:24;144490.81;;;11.70;100.00
5877;BME280;2964;42.144;24.730;2023-04-26T01:57:52;144460.63;;;11.58;100.00
5877;BME280;2964;42.144;24.730;2023-04-26T02:00:19;144476.97;;;11.65;100.00
5877;BME280;2964;42.144;24.730;2023-04-26T02:02:45;144458.13;;;11.57;100.00
5877;BME280;2964;42.144;24.730;2023-04-26T02:05:12;144420.41;;;11.42;100.00
5877;BME280;2964;42.144;24.730;2023-04-26T02:07:39;144562.53;;;12.00;100.00
5877;BME280;2964;42.144;24.730;2023-04-26T02:10:07;144445.56;;;11.52;100.00
5877;BME280;2964;42.144;24.730;2023-04-26T02:12:34;144473.19;;;11.63;100.00
5877;BME280;2964;42.144;24.730;2023-04-26T02:15:02;144432.97;;;11.47;100.00
5877;BME280;2964;42.144;24.730;2023-04-26T02:17:29;144469.41;;;11.62;100.00
5877;BME280;2964;42.144;24.730;2023-04-26T02:19:55;144475.75;;;11.64;100.00
5877;BME280;2964;42.144;24.730;2023-04-26T02:22:22;144469.41;;;11.62;100.00
5877;BME280;2964;42.144;24.730;2023-04-26T02:24:49;144469.41;;;11.62;100.00
5877;BME280;2964;42.144;24.730;2023-04-26T02:27:17;144483.25;;;11.67;100.00
5877;BME280;2964;42.144;24.730;2023-04-26T02:29:43;144441.78;;;11.50;100.00
5877;BME280;2964;42.144;24.730;2023-04-26T02:32:12;144448.09;;;11.53;100.00
5877;BME280;2964;42.144;24.730;2023-04-26T02:34:39;144455.59;;;11.56;100.00
5877;BME280;2964;42.144;24.730;2023-04-26T02:37:06;144466.94;;;11.61;100.00
5877;BME280;2964;42.144;24.730;2023-04-26T02:39:33;144487.03;;;11.69;100.00
5877;BME280;2964;42.144;24.730;2023-04-26T02:42:00;144450.56;;;11.54;100.00
5877;BME280;2964;42.144;24.730;2023-04-26T02:44:28;144432.97;;;11.47;100.00
5877;BME280;2964;42.144;24.730;2023-04-26T02:46:54;144432.97;;;11.47;100.00
5877;BME280;2964;42.144;24.730;2023-04-26T02:49:22;144411.63;;;11.38;100.00
5877;BME280;2964;42.144;24.730;2023-04-26T02:51:49;144405.31;;;11.35;100.00
5877;BME280;2964;42.144;24.730;2023-04-26T02:54:16;144412.88;;;11.38;100.00
5877;BME280;2964;42.144;24.730;2023-04-26T02:56:42;144429.19;;;11.45;100.00
5877;BME280;2964;42.144;24.730;2023-04-26T02:59:09;144464.41;;;11.59;100.00
5877;BME280;2964;42.144;24.730;2023-04-26T03:01:36;144450.56;;;11.54;100.00
5877;BME280;2964;42.144;24.730;2023-04-26T03:04:03;144435.50;;;11.48;100.00
5877;BME280;2964;42.144;24.730;2023-04-26T03:06:31;144431.72;;;11.46;100.00
5877;BME280;2964;42.144;24.730;2023-04-26T03:08:58;144430.50;;;11.46;100.00
5877;BME280;2964;42.144;24.730;2023-04-26T03:11:25;144432.97;;;11.47;100.00
5877;BME280;2964;42.144;24.730;2023-04-26T03:13:52;144443.00;;;11.51;100.00
5877;BME280;2964;42.144;24.730;2023-04-26T03:16:19;144391.50;;;11.30;100.00
5877;BME280;2964;42.144;24.730;2023-04-26T03:18:45;144510.94;;;11.78;100.00
5877;BME280;2964;42.144;24.730;2023-04-26T03:21:12;144464.41;;;11.59;100.00
5877;BME280;2964;42.144;24.730;2023-04-26T03:23:40;144448.09;;;11.53;100.00
5877;BME280;2964;42.144;24.730;2023-04-26T03:26:07;144521.00;;;11.83;100.00
5877;BME280;2964;42.144;24.730;2023-04-26T03:28:33;144534.81;;;11.88;100.00
5877;BME280;2964;42.144;24.730;2023-04-26T03:31:00;144529.81;;;11.86;100.00
5877;BME280;2964;42.144;24.730;2023-04-26T03:33:27;144461.91;;;11.58;100.00
5877;BME280;2964;42.144;24.730;2023-04-26T03:35:53;144424.16;;;11.43;100.00
5877;BME280;2964;42.144;24.730;2023-04-26T03:38:20;144400.31;;;11.33;100.00
5877;BME280;2964;42.144;24.730;2023-04-26T03:40:49;144390.25;;;11.29;100.00
5877;BME280;2964;42.144;24.730;2023-04-26T03:43:15;144375.16;;;11.23;100.00
5877;BME280;2964;42.144;24.730;2023-04-26T03:45:45;144385.25;;;11.27;100.00
5877;BME280;2964;42.144;24.730;2023-04-26T03:48:13;144352.53;;;11.14;100.00
5877;BME280;2964;42.144;24.730;2023-04-26T03:50:40;144372.66;;;11.22;100.00
5877;BME280;2964;42.144;24.730;2023-04-26T03:53:09;144337.47;;;11.08;100.00
5877;BME280;2964;42.144;24.730;2023-04-26T03:55:35;144345.03;;;11.11;100.00
5877;BME280;2964;42.144;24.730;2023-04-26T03:58:03;144357.59;;;11.16;100.00
5877;BME280;2964;42.144;24.730;2023-04-26T04:00:32;144350.03;;;11.13;100.00
5877;BME280;2964;42.144;24.730;2023-04-26T04:02:58;144347.50;;;11.12;100.00
5877;BME280;2964;42.144;24.730;2023-04-26T04:05:25;144357.59;;;11.16;100.00
5877;BME280;2964;42.144;24.730;2023-04-26T04:07:52;144400.31;;;11.33;100.00
5877;BME280;2964;42.144;24.730;2023-04-26T04:10:18;144443.00;;;11.51;100.00
5877;BME280;2964;42.144;24.730;2023-04-26T04:12:47;144553.72;;;11.96;100.00
5877;BME280;2964;42.144;24.730;2023-04-26T04:15:15;144593.97;;;12.12;100.00
5877;BME280;2964;42.144;24.730;2023-04-26T04:17:42;144581.38;;;12.07;100.00
5877;BME280;2964;42.144;24.730;2023-04-26T04:20:09;144609.06;;;12.19;100.00
5877;BME280;2964;42.144;24.730;2023-04-26T04:22:36;144573.81;;;12.04;100.00
5877;BME280;2964;42.144;24.730;2023-04-26T04:25:04;144659.34;;;12.39;100.00
5877;BME280;2964;42.144;24.730;2023-04-26T04:27:31;144549.94;;;11.94;100.00
5877;BME280;2964;42.144;24.730;2023-04-26T04:29:58;144527.28;;;11.85;100.00
5877;BME280;2964;42.144;24.730;2023-04-26T04:32:29;144590.19;;;12.11;100.00
5877;BME280;2964;42.144;24.730;2023-04-26T04:34:57;144682.00;;;12.48;100.00
5877;BME280;2964;42.144;24.730;2023-04-26T04:37:24;144641.75;;;12.32;100.00
5877;BME280;2964;42.144;24.730;2023-04-26T04:39:51;144682.00;;;12.48;100.00
5877;BME280;2964;42.144;24.730;2023-04-26T04:42:18;144729.81;;;12.68;100.00
5877;BME280;2964;42.144;24.730;2023-04-26T04:44:45;144713.44;;;12.61;100.00
5877;BME280;2964;42.144;24.730;2023-04-26T04:47:12;144668.16;;;12.43;100.00
5877;BME280;2964;42.144;24.730;2023-04-26T04:49:40;144717.22;;;12.63;100.00
5877;BME280;2964;42.144;24.730;2023-04-26T04:52:07;144752.47;;;12.77;100.00
5877;BME280;2964;42.144;24.730;2023-04-26T04:54:34;144822.97;;;13.06;100.00
5877;BME280;2964;42.144;24.730;2023-04-26T04:57:01;144744.91;;;12.74;100.00
5877;BME280;2964;42.144;24.730;2023-04-26T04:59:28;144772.59;;;12.85;100.00
5877;BME280;2964;42.144;24.730;2023-04-26T05:01:55;144940.03;;;13.54;100.00
5877;BME280;2964;42.144;24.730;2023-04-26T05:04:21;144883.41;;;13.30;100.00
5877;BME280;2964;42.144;24.730;2023-04-26T05:06:49;145193.19;;;14.57;100.00
5877;BME280;2964;42.144;24.730;2023-04-26T05:09:16;145594.25;;;16.20;92.10
5877;BME280;2964;42.144;24.730;2023-04-26T05:11:43;145948.97;;;17.64;87.39
5877;BME280;2964;42.144;24.730;2023-04-26T05:14:10;146180.22;;;18.58;82.11
5877;BME280;2964;42.144;24.730;2023-04-26T05:16:37;146112.00;;;18.30;79.40
5877;BME280;2964;42.144;24.730;2023-04-26T05:19:03;146003.34;;;17.86;81.29
5877;BME280;2964;42.144;24.730;2023-04-26T05:21:30;145892.19;;;17.41;86.20
5877;BME280;2964;42.144;24.730;2023-04-26T05:23:59;146165.06;;;18.52;79.00
5877;BME280;2964;42.144;24.730;2023-04-26T05:26:25;146138.53;;;18.41;81.32
5877;BME280;2964;42.144;24.730;2023-04-26T05:28:52;146029.88;;;17.97;81.34
5877;BME280;2964;42.144;24.730;2023-04-26T05:31:18;146190.31;;;18.62;80.61
5877;BME280;2964;42.144;24.730;2023-04-26T05:33:45;146318.03;;;19.14;78.81
5877;BME280;2964;42.144;24.730;2023-04-26T05:36:12;146286.44;;;19.01;79.63
5877;BME280;2964;42.144;24.730;2023-04-26T05:38:39;146430.59;;;19.60;75.77
5877;BME280;2964;42.144;24.730;2023-04-26T05:41:07;146447.03;;;19.66;73.35
5877;BME280;2964;42.144;24.730;2023-04-26T05:43:34;146364.84;;;19.33;71.46
5877;BME280;2964;42.144;24.730;2023-04-26T05:46:00;146294.03;;;19.04;73.33
5877;BME280;2964;42.144;24.730;2023-04-26T05:48:27;146263.69;;;18.92;71.58
5877;BME280;2964;42.144;24.730;2023-04-26T05:50:54;146506.53;;;19.91;71.56
5877;BME280;2964;42.144;24.730;2023-04-26T05:53:21;146517.91;;;19.95;70.73
5877;BME280;2964;42.144;24.730;2023-04-26T05:55:48;146638.13;;;20.44;68.07
5877;BME280;2964;42.144;24.730;2023-04-26T05:58:16;146547.03;;;20.07;66.96
5877;BME280;2964;42.144;24.730;2023-04-26T06:00:42;146225.72;;;18.77;71.05
5877;BME280;2964;42.144;24.730;2023-04-26T06:03:09;146144.84;;;18.44;73.10
5877;BME280;2964;42.144;24.730;2023-04-26T06:05:36;146483.78;;;19.81;69.45
5877;BME280;2964;42.144;24.730;2023-04-26T06:08:04;146504.00;;;19.90;68.37
5877;BME280;2964;42.144;24.730;2023-04-26T06:10:31;146426.78;;;19.58;68.85
5877;BME280;2964;42.144;24.730;2023-04-26T06:12:58;146606.50;;;20.31;66.62
5877;BME280;2964;42.144;24.730;2023-04-26T06:15:26;146714.06;;;20.75;63.64
5877;BME280;2964;42.144;24.730;2023-04-26T06:17:52;146595.06;;;20.27;64.80
5877;BME280;2964;42.144;24.730;2023-04-26T06:20:19;146376.22;;;19.38;67.46
5877;BME280;2964;42.144;24.730;2023-04-26T06:22:46;146412.88;;;19.53;68.02
5877;BME280;2964;42.144;24.730;2023-04-26T06:25:13;146321.84;;;19.16;69.03
5877;BME280;2964;42.144;24.730;2023-04-26T06:27:40;146239.66;;;18.82;69.52
5877;BME280;2964;42.144;24.730;2023-04-26T06:30:08;146071.56;;;18.14;69.33
5877;BME280;2964;42.144;24.730;2023-04-26T06:32:37;146280.13;;;18.99;68.67
5877;BME280;2964;42.144;24.730;2023-04-26T06:35:04;146749.53;;;20.89;62.61
5877;BME280;2964;42.144;24.730;2023-04-26T06:37:31;147018.03;;;21.98;59.90
5877;BME280;2964;42.144;24.730;2023-04-26T06:39:58;146726.75;;;20.80;64.28
5877;BME280;2964;42.144;24.730;2023-04-26T06:42:25;146650.78;;;20.49;64.25
5877;BME280;2964;42.144;24.730;2023-04-26T06:44:52;146481.22;;;19.80;64.88
5877;BME280;2964;42.144;24.730;2023-04-26T06:47:19;146501.47;;;19.89;64.78
5877;BME280;2964;42.144;24.730;2023-04-26T06:49:47;146170.13;;;18.54;69.47
5877;BME280;2964;42.144;24.730;2023-04-26T06:52:13;146213.06;;;18.71;70.43
5877;BME280;2964;42.144;24.730;2023-04-26T06:54:40;146286.44;;;19.01;70.24
5877;BME280;2964;42.144;24.730;2023-04-26T06:57:07;146522.97;;;19.97;67.97
5877;BME280;2964;42.144;24.730;2023-04-26T06:59:33;146472.38;;;19.77;66.71
5877;BME280;2964;42.144;24.730;2023-04-26T07:02:00;146600.13;;;20.29;65.74
5877;BME280;2964;42.144;24.730;2023-04-26T07:04:27;146554.59;;;20.10;66.93
5877;BME280;2964;42.144;24.730;2023-04-26T07:06:55;146812.84;;;21.15;64.13
5877;BME280;2964;42.144;24.730;2023-04-26T07:09:22;146610.28;;;20.33;65.83
5877;BME280;2964;42.144;24.730;2023-04-26T07:11:49;146214.38;;;18.72;70.80
5877;BME280;2964;42.144;24.730;2023-04-26T07:14:15;146306.69;;;19.09;70.23
5877;BME280;2964;42.144;24.730;2023-04-26T07:16:43;146356.00;;;19.29;67.94
5877;BME280;2964;42.144;24.730;2023-04-26T07:19:10;146324.38;;;19.17;69.19
5877;BME280;2964;42.144;24.730;2023-04-26T07:21:37;146364.84;;;19.33;67.94
5877;BME280;2964;42.144;24.730;2023-04-26T07:24:05;146307.94;;;19.10;70.64
5877;BME280;2964;42.144;24.730;2023-04-26T07:26:34;146744.47;;;20.87;66.28
5877;BME280;2964;42.144;24.730;2023-04-26T07:29:01;146890.13;;;21.46;62.93
5877;BME280;2964;42.144;24.730;2023-04-26T07:31:29;146777.38;;;21.00;63.30
5877;BME280;2964;42.144;24.730;2023-04-26T07:33:56;146684.97;;;20.63;63.39
5877;BME280;2964;42.144;24.730;2023-04-26T07:36:22;146806.50;;;21.12;63.46
5877;BME280;2964;42.144;24.730;2023-04-26T07:38:49;146911.66;;;21.55;61.12
5877;BME280;2964;42.144;24.730;2023-04-26T07:41:17;146724.25;;;20.79;61.70
5877;BME280;2964;42.144;24.730;2023-04-26T07:43:44;146447.03;;;19.66;63.71
5877;BME280;2964;42.144;24.730;2023-04-26T07:46:11;146276.31;;;18.97;66.23
5877;BME280;2964;42.144;24.730;2023-04-26T07:48:37;146248.53;;;18.86;64.02
5877;BME280;2964;42.144;24.730;2023-04-26T07:51:09;146144.84;;;18.44;68.27
5877;BME280;2964;42.144;24.730;2023-04-26T07:53:36;146127.13;;;18.37;69.06
5877;BME280;2964;42.144;24.730;2023-04-26T07:56:04;146137.28;;;18.41;66.97
5877;BME280;2964;42.144;24.730;2023-04-26T07:58:33;146208.03;;;18.69;67.75
5877;BME280;2964;42.144;24.730;2023-04-26T08:01:00;146171.38;;;18.55;68.84
5877;BME280;2964;42.144;24.730;2023-04-26T08:03:28;146253.56;;;18.88;68.37
5877;BME280;2964;42.144;24.730;2023-04-26T08:05:55;146447.03;;;19.66;66.55
5877;BME280;2964;42.144;24.730;2023-04-26T08:08:24;146586.22;;;20.23;64.00
5877;BME280;2964;42.144;24.730;2023-04-26T08:10:51;147099.19;;;22.31;58.46
5877;BME280;2964;42.144;24.730;2023-04-26T08:13:17;147399.66;;;23.52;55.39
5877;BME280;2964;42.144;24.730;2023-04-26T08:15:47;147883.28;;;25.48;51.83
5877;BME280;2964;42.144;24.730;2023-04-26T08:18:13;148153.88;;;26.57;47.99
5877;BME280;2964;42.144;24.730;2023-04-26T08:20:40;148351.00;;;27.37;42.34
5877;BME280;2964;42.144;24.730;2023-04-26T08:23:07;148672.84;;;28.67;34.78
5877;BME280;2964;42.144;24.730;2023-04-26T08:25:33;148592.63;;;28.35;33.42
5877;BME280;2964;42.144;24.730;2023-04-26T08:28:00;148837.06;;;29.33;32.53
5877;BME280;2964;42.144;24.730;2023-04-26T08:30:27;148879.06;;;29.50;32.07
5877;BME280;2964;42.144;24.730;2023-04-26T08:32:55;147939.13;;;25.71;36.09
5877;BME280;2964;42.144;24.730;2023-04-26T08:35:22;147927.72;;;25.66;36.51
5877;BME280;2964;42.144;24.730;2023-04-26T08:37:48;148025.56;;;26.06;37.49
5877;BME280;2964;42.144;24.730;2023-04-26T08:40:21;147852.78;;;25.36;37.51
5877;BME280;2964;42.144;24.730;2023-04-26T08:42:49;147735.97;;;24.89;38.87
5877;BME280;2964;42.144;24.730;2023-04-26T08:45:17;147494.84;;;23.91;43.72
5877;BME280;2964;42.144;24.730;2023-04-26T08:47:47;147258.88;;;22.96;43.25
5877;BME280;2964;42.144;24.730;2023-04-26T08:50:18;147384.44;;;23.46;43.94
5877;BME280;2964;42.144;24.730;2023-04-26T08:52:46;147257.59;;;22.95;42.47
5877;BME280;2964;42.144;24.730;2023-04-26T08:55:14;147318.50;;;23.20;42.15
5877;BME280;2964;42.144;24.730;2023-04-26T08:57:42;147113.13;;;22.36;43.11
5877;BME280;2964;42.144;24.730;2023-04-26T09:00:09;147203.09;;;22.73;42.79
5877;BME280;2964;42.144;24.730;2023-04-26T09:02:39;147158.75;;;22.55;41.46
5877;BME280;2964;42.144;24.730;2023-04-26T09:05:07;147405.97;;;23.55;40.12
5877;BME280;2964;42.144;24.730;2023-04-26T09:07:39;147494.84;;;23.91;39.28
5877;BME280;2964;42.144;24.730;2023-04-26T09:10:08;147974.72;;;25.85;35.82
5877;BME280;2964;42.144;24.730;2023-04-26T09:12:35;148391.66;;;27.53;32.58
5877;BME280;2964;42.144;24.730;2023-04-26T09:15:03;148606.63;;;28.40;32.27
5877;BME280;2964;42.144;24.730;2023-04-26T09:17:32;148493.47;;;27.95;30.61
5877;BME280;2964;42.144;24.730;2023-04-26T09:20:01;147901.06;;;25.55;35.68
5877;BME280;2964;42.144;24.730;2023-04-26T09:22:43;148303.88;;;27.18;32.88
5877;BME280;2964;42.144;24.730;2023-04-26T09:25:11;148279.75;;;27.08;33.15
5877;BME280;2964;42.144;24.730;2023-04-26T09:27:40;147673.78;;;24.63;36.39
5877;BME280;2964;42.144;24.730;2023-04-26T09:30:09;147413.59;;;23.58;39.43
5877;BME280;2964;42.144;24.730;2023-04-26T09:32:48;147033.28;;;22.04;42.71
5877;BME280;2964;42.144;24.730;2023-04-26T09:35:30;146959.75;;;21.74;43.61
5877;BME280;2964;42.144;24.730;2023-04-26T09:38:00;146795.09;;;21.08;43.63
5877;BME280;2964;42.144;24.730;2023-04-26T09:40:30;146997.78;;;21.90;45.75
5877;BME280;2964;42.144;24.730;2023-04-26T09:42:58;146928.16;;;21.62;45.56
5877;BME280;2964;42.144;24.730;2023-04-26T09:45:26;146991.44;;;21.87;46.28
5877;BME280;2964;42.144;24.730;2023-04-26T09:47:53;146938.25;;;21.66;44.36
5877;BME280;2964;42.144;24.730;2023-04-26T09:50:27;146929.41;;;21.62;46.41
5877;BME280;2964;42.144;24.730;2023-04-26T09:52:54;146925.59;;;21.61;46.58
5877;BME280;2964;42.144;24.730;2023-04-26T09:55:28;147225.91;;;22.82;44.44
5877;BME280;2964;42.144;24.730;2023-04-26T09:57:55;147418.66;;;23.60;41.98
5877;BME280;2964;42.144;24.730;2023-04-26T10:00:25;147310.91;;;23.17;43.00
5877;BME280;2964;42.144;24.730;2023-04-26T10:02:53;147257.59;;;22.95;43.82
5877;BME280;2964;42.144;24.730;2023-04-26T10:05:21;147503.72;;;23.95;42.14
5877;BME280;2964;42.144;24.730;2023-04-26T10:07:49;147374.28;;;23.42;41.70
5877;BME280;2964;42.144;24.730;2023-04-26T10:10:17;147225.91;;;22.82;41.87
5877;BME280;2964;42.144;24.730;2023-04-26T10:12:45;147243.66;;;22.89;44.36
5877;BME280;2964;42.144;24.730;2023-04-26T10:15:13;146902.78;;;21.51;44.35
5877;BME280;2964;42.144;24.730;2023-04-26T10:17:40;147068.72;;;22.18;44.37
5877;BME280;2964;42.144;24.730;2023-04-26T10:20:10;147051.00;;;22.11;45.00
5877;BME280;2964;42.144;24.730;2023-04-26T10:22:42;146985.13;;;21.85;44.94
5877;BME280;2964;42.144;24.730;2023-04-26T10:25:10;146902.78;;;21.51;44.92
5877;BME280;2964;42.144;24.730;2023-04-26T10:27:51;146759.66;;;20.93;44.89
5877;BME280;2964;42.144;24.730;2023-04-26T10:30:21;146715.38;;;20.75;47.22
5877;BME280;2964;42.144;24.730;2023-04-26T10:33:15;146772.31;;;20.98;47.39
5877;BME280;2964;42.144;24.730;2023-04-26T10:36:07;146615.34;;;20.35;47.08
5877;BME280;2964;42.144;24.730;2023-04-26T10:38:36;146587.50;;;20.23;48.20
5877;BME280;2964;42.144;24.730;2023-04-26T10:41:28;146509.03;;;19.92;49.56
5877;BME280;2964;42.144;24.730;2023-04-26T10:43:59;146415.44;;;19.54;50.87
5877;BME280;2964;42.144;24.730;2023-04-26T10:46:34;146361.06;;;19.32;50.97
5877;BME280;2964;42.144;24.730;2023-04-26T10:49:15;146385.06;;;19.41;52.84
5877;BME280;2964;42.144;24.730;2023-04-26T10:52:10;146338.28;;;19.22;55.54
5877;BME280;2964;42.144;24.730;2023-04-26T10:54:54;146380.00;;;19.39;56.02
5877;BME280;2964;42.144;24.730;2023-04-26T10:57:22;146312.97;;;19.12;54.84
5877;BME280;2964;42.144;24.730;2023-04-26T11:00:24;146192.88;;;18.63;56.77
5877;BME280;2964;42.144;24.730;2023-04-26T11:02:56;146101.91;;;18.26;54.31
5877;BME280;2964;42.144;24.730;2023-04-26T11:05:51;146133.47;;;18.39;53.98
5877;BME280;2964;42.144;24.730;2023-04-26T11:08:19;146103.13;;;18.27;55.73
5877;BME280;2964;42.144;24.730;2023-04-26T11:10:50;146072.81;;;18.14;55.61
5877;BME280;2964;42.144;24.730;2023-04-26T11:13:18;146119.59;;;18.33;55.12
5877;BME280;2964;42.144;24.730;2023-04-26T11:15:46;146154.94;;;18.48;55.58
5877;BME280;2964;42.144;24.730;2023-04-26T11:18:17;146184.03;;;18.60;55.92
5877;BME280;2964;42.144;24.730;2023-04-26T11:21:14;146282.69;;;19.00;54.39
5877;BME280;2964;42.144;24.730;2023-04-26T11:23:52;146247.28;;;18.85;52.99
5877;BME280;2964;42.144;24.730;2023-04-26T11:26:18;146266.22;;;18.93;53.67
5877;BME280;2964;42.144;24.730;2023-04-26T11:28:45;146176.41;;;18.57;54.83
5877;BME280;2964;42.144;24.730;2023-04-26T11:31:13;146192.88;;;18.63;54.56
5877;BME280;2964;42.144;24.730;2023-04-26T11:33:40;146153.69;;;18.47;53.88
5877;BME280;2964;42.144;24.730;2023-04-26T11:36:07;146182.78;;;18.59;53.41
5877;BME280;2964;42.144;24.730;2023-04-26T11:38:34;146201.72;;;18.67;53.45
5877;BME280;2964;42.144;24.730;2023-04-26T11:41:02;146258.63;;;18.90;54.54
5877;BME280;2964;42.144;24.730;2023-04-26T11:43:32;146209.28;;;18.70;50.52
5877;BME280;2964;42.144;24.730;2023-04-26T11:46:00;146175.19;;;18.56;51.35
5877;BME280;2964;42.144;24.730;2023-04-26T11:48:29;146057.66;;;18.08;51.58
5877;BME280;2964;42.144;24.730;2023-04-26T11:50:56;146112.00;;;18.30;51.25
5877;BME280;2964;42.144;24.730;2023-04-26T11:53:24;146041.22;;;18.02;51.89
5877;BME280;2964;42.144;24.730;2023-04-26T11:55:51;145970.47;;;17.73;53.53
5877;BME280;2964;42.144;24.730;2023-04-26T11:58:18;145930.03;;;17.56;54.79
5877;BME280;2964;42.144;24.730;2023-04-26T12:00:55;145940.13;;;17.61;53.90
5877;BME280;2964;42.144;24.730;2023-04-26T12:03:22;145988.16;;;17.80;55.14
5877;BME280;2964;42.144;24.730;2023-04-26T12:05:54;146000.78;;;17.85;55.22
5877;BME280;2964;42.144;24.730;2023-04-26T12:08:23;145962.88;;;17.70;53.77
5877;BME280;2964;42.144;24.730;2023-04-26T12:10:50;145956.56;;;17.67;53.39
5877;BME280;2964;42.144;24.730;2023-04-26T12:13:18;146013.44;;;17.90;53.43
5877;BME280;2964;42.144;24.730;2023-04-26T12:15:45;146046.31;;;18.04;53.24
5877;BME280;2964;42.144;24.730;2023-04-26T12:18:12;145995.69;;;17.83;51.06
5877;BME280;2964;42.144;24.730;2023-04-26T12:20:40;145988.16;;;17.80;49.89
5877;BME280;2964;42.144;24.730;2023-04-26T12:23:09;145926.25;;;17.55;50.27
5877;BME280;2964;42.144;24.730;2023-04-26T12:25:38;146017.22;;;17.92;50.99
5877;BME280;2964;42.144;24.730;2023-04-26T12:28:06;145985.59;;;17.79;55.15
5877;BME280;2964;42.144;24.730;2023-04-26T12:30:36;146005.88;;;17.87;56.73
5877;BME280;2964;42.144;24.730;2023-04-26T12:33:04;145985.59;;;17.79;57.52
5877;BME280;2964;42.144;24.730;2023-04-26T12:35:31;146026.06;;;17.96;58.48
5877;BME280;2964;42.144;24.730;2023-04-26T12:37:59;145936.34;;;17.59;60.14
5877;BME280;2964;42.144;24.730;2023-04-26T12:40:27;145965.41;;;17.71;61.06
5877;BME280;2964;42.144;24.730;2023-04-26T12:42:56;145956.56;;;17.67;60.27
5877;BME280;2964;42.144;24.730;2023-04-26T12:45:24;145811.38;;;17.08;59.54
5877;BME280;2964;42.144;24.730;2023-04-26T12:47:51;145788.66;;;16.99;64.49
5877;BME280;2964;42.144;24.730;2023-04-26T12:50:18;145716.66;;;16.70;69.89
5877;BME280;2964;42.144;24.730;2023-04-26T12:52:46;145668.69;;;16.50;73.63
5877;BME280;2964;42.144;24.730;2023-04-26T12:55:14;145682.56;;;16.56;67.61
5877;BME280;2964;42.144;24.730;2023-04-26T12:57:43;145715.41;;;16.69;60.44
5877;BME280;2964;42.144;24.730;2023-04-26T13:00:11;145720.44;;;16.71;62.68
5877;BME280;2964;42.144;24.730;2023-04-26T13:02:38;145711.59;;;16.68;67.77